Time;durP1;ratioP1;P1;durP2;ratioP2;P2;SDS_P1;SDS_P2;PMS_P1;PMS_P2;Temp;Humidity;BMP_temperature;BMP_pressure;BME280_temperature;BME280_humidity;BME280_pressure;Samples;Min_cycle;Max_cycle;Signal;HPM_P1;HPM_P2
2023/06/13 00:00:51;;;;;;;5.00;3.10;;;;;;;11.11;63.06;100846.89;102593;279;102843;-57
2023/06/13 00:03:49;;;;;;;6.90;3.30;;;;;;;11.06;63.14;100844.10;102570;279;112843;-58
2023/06/13 00:06:22;;;;;;;6.50;3.90;;;;;;;11.02;63.39;100844.44;102442;279;92692;-57
2023/06/13 00:08:58;;;;;;;5.50;3.70;;;;;;;11.01;63.27;100843.10;102606;279;97583;-57
2023/06/13 00:11:34;;;;;;;5.30;3.20;;;;;;;10.98;63.34;100841.86;102568;279;119546;-55
2023/06/13 00:14:18;;;;;;;4.40;2.80;;;;;;;10.95;63.24;100840.04;102494;279;103734;-55
2023/06/13 00:16:50;;;;;;;4.20;3.10;;;;;;;10.92;63.49;100843.67;102520;279;115503;-55
2023/06/13 00:19:32;;;;;;;4.90;3.10;;;;;;;10.89;63.66;100842.41;102512;279;96645;-55
2023/06/13 00:22:08;;;;;;;5.00;3.20;;;;;;;10.86;63.89;100838.05;102443;280;97318;-55
2023/06/13 00:24:46;;;;;;;6.00;3.20;;;;;;;10.85;63.74;100832.66;102506;279;120839;-55
2023/06/13 00:27:20;;;;;;;5.00;2.10;;;;;;;10.84;63.85;100832.92;102551;268;104145;-56
2023/06/13 00:30:02;;;;;;;4.00;2.40;;;;;;;10.86;64.34;100832.67;102488;279;115141;-55
2023/06/13 00:32:47;;;;;;;3.90;2.10;;;;;;;10.87;64.53;100825.70;102595;279;94184;-57
2023/06/13 00:35:19;;;;;;;4.00;1.90;;;;;;;10.86;64.61;100823.18;102526;279;96791;-55
2023/06/13 00:37:54;;;;;;;3.20;1.90;;;;;;;10.84;64.65;100820.52;102541;279;119464;-55
2023/06/13 00:40:35;;;;;;;3.90;2.10;;;;;;;10.81;64.68;100816.95;102564;279;104258;-55
2023/06/13 00:43:11;;;;;;;3.10;2.00;;;;;;;10.78;64.88;100811.35;102536;279;113373;-55
2023/06/13 00:45:43;;;;;;;3.40;2.00;;;;;;;10.74;65.22;100815.45;102572;279;97422;-57
2023/06/13 00:48:23;;;;;;;3.30;1.90;;;;;;;10.71;65.63;100810.36;102576;279;96575;-58
2023/06/13 00:50:55;;;;;;;3.20;2.00;;;;;;;10.72;65.70;100809.92;102548;279;119734;-57
2023/06/13 00:53:29;;;;;;;4.00;1.80;;;;;;;10.73;65.89;100809.34;102563;279;105830;-58
2023/06/13 00:56:02;;;;;;;3.70;2.20;;;;;;;10.71;66.18;100807.61;102525;279;114711;-55
2023/06/13 00:58:42;;;;;;;3.70;2.50;;;;;;;10.72;66.37;100801.05;102479;279;95811;-54
2023/06/13 01:01:22;;;;;;;5.40;2.50;;;;;;;10.71;66.53;100807.16;102513;279;97471;-58
2023/06/13 01:03:59;;;;;;;3.70;2.40;;;;;;;10.74;66.62;100806.96;102514;279;119187;-58
2023/06/13 01:06:33;;;;;;;4.00;2.70;;;;;;;10.75;67.08;100798.87;102411;280;104436;-59
2023/06/13 01:09:12;;;;;;;3.60;2.80;;;;;;;10.74;67.25;100796.53;102511;279;115149;-59
2023/06/13 01:12:10;;;;;;;6.70;3.00;;;;;;;10.74;67.54;100795.20;102501;279;92332;-53
2023/06/13 01:14:58;;;;;;;3.50;2.30;;;;;;;10.77;67.62;100794.81;102529;279;98040;-55
2023/06/13 01:17:49;;;;;;;3.80;2.60;;;;;;;10.83;67.68;100792.64;102497;279;120171;-55
2023/06/13 01:20:22;;;;;;;5.50;2.80;;;;;;;10.86;67.83;100791.80;102547;279;104137;-58
2023/06/13 01:23:14;;;;;;;4.20;2.80;;;;;;;10.87;67.84;100791.79;102308;279;112856;-58
2023/06/13 01:26:03;;;;;;;4.70;3.00;;;;;;;10.87;68.03;100789.90;102537;279;95589;-54
2023/06/13 01:28:43;;;;;;;4.50;2.80;;;;;;;10.88;68.09;100785.08;102543;279;96971;-55
2023/06/13 01:31:29;;;;;;;5.20;2.80;;;;;;;10.94;68.12;100785.16;102590;279;119900;-55
2023/06/13 01:34:03;;;;;;;3.80;3.00;;;;;;;10.95;68.31;100783.48;102605;278;105285;-55
2023/06/13 01:36:36;;;;;;;4.50;2.70;;;;;;;11.00;68.27;100785.63;102606;279;114842;-56
2023/06/13 01:39:19;;;;;;;6.20;2.80;;;;;;;11.00;68.32;100783.06;102579;279;93987;-55
2023/06/13 01:41:57;;;;;;;5.00;2.90;;;;;;;11.02;68.49;100781.65;102586;279;98034;-55
2023/06/13 01:44:36;;;;;;;4.30;3.00;;;;;;;11.02;68.48;100780.68;102542;279;121734;-55
2023/06/13 01:47:22;;;;;;;5.40;3.30;;;;;;;11.05;68.41;100780.65;102306;280;104579;-56
2023/06/13 01:50:10;;;;;;;5.40;3.20;;;;;;;11.04;68.59;100784.00;102534;279;115352;-58
2023/06/13 01:52:55;;;;;;;5.80;2.80;;;;;;;11.01;68.70;100785.11;102493;279;96508;-57
2023/06/13 01:55:39;;;;;;;4.40;3.10;;;;;;;11.04;68.82;100783.33;102506;279;96676;-56
2023/06/13 01:58:23;;;;;;;4.10;3.00;;;;;;;11.07;68.88;100781.77;102527;279;119370;-55
2023/06/13 02:00:58;;;;;;;3.70;3.00;;;;;;;11.13;68.87;100778.06;102517;279;105951;-57
2023/06/13 02:03:31;;;;;;;4.30;3.10;;;;;;;11.11;68.98;100780.96;102537;279;115049;-57
2023/06/13 02:06:07;;;;;;;4.30;3.00;;;;;;;11.12;69.08;100776.48;102530;279;94831;-55
2023/06/13 02:08:41;;;;;;;5.30;3.20;;;;;;;11.15;69.03;100775.41;102521;279;95955;-55
2023/06/13 02:11:12;;;;;;;7.80;3.80;;;;;;;11.15;69.13;100775.14;102588;279;119926;-59
2023/06/13 02:13:45;;;;;;;6.90;4.30;;;;;;;11.17;69.35;100775.03;102567;279;105452;-59
2023/06/13 02:16:18;;;;;;;6.30;3.80;;;;;;;11.12;69.53;100771.73;102546;279;113437;-57
2023/06/13 02:18:55;;;;;;;6.50;4.30;;;;;;;11.07;69.83;100774.03;102544;267;97306;-57
2023/06/13 02:21:29;;;;;;;8.30;4.70;;;;;;;11.10;69.82;100773.33;102557;279;97278;-55
2023/06/13 02:24:06;;;;;;;6.40;4.50;;;;;;;11.11;69.84;100769.80;102576;279;122105;-56
2023/06/13 02:26:44;;;;;;;7.00;3.80;;;;;;;11.12;70.07;100771.78;102547;279;104876;-58
2023/06/13 02:29:20;;;;;;;5.50;3.10;;;;;;;11.13;70.21;100774.08;102525;279;113627;-57
2023/06/13 02:32:03;;;;;;;6.00;4.00;;;;;;;11.12;70.23;100777.14;102510;279;94137;-55
2023/06/13 02:34:43;;;;;;;6.20;4.00;;;;;;;11.10;70.41;100772.95;102513;279;96733;-55
2023/06/13 02:37:16;;;;;;;6.90;3.70;;;;;;;11.10;70.80;100772.66;102580;279;120242;-58
2023/06/13 02:39:54;;;;;;;7.60;3.90;;;;;;;11.09;70.63;100772.15;102499;279;105917;-58
2023/06/13 02:42:28;;;;;;;5.30;3.50;;;;;;;11.08;70.84;100770.88;102532;279;114290;-57
2023/06/13 02:45:07;;;;;;;7.10;4.00;;;;;;;11.04;71.02;100771.33;102531;267;96594;-58
2023/06/13 02:47:48;;;;;;;5.10;3.70;;;;;;;11.04;70.91;100773.52;102506;279;97988;-59
2023/06/13 02:50:22;;;;;;;7.50;3.60;;;;;;;11.09;71.05;100771.36;102519;279;120331;-55
2023/06/13 02:52:57;;;;;;;5.80;3.10;;;;;;;11.08;71.05;100769.98;102560;279;105263;-54
2023/06/13 02:55:29;;;;;;;5.80;3.30;;;;;;;11.06;71.41;100766.41;102506;279;114830;-56
2023/06/13 02:58:10;;;;;;;3.60;3.10;;;;;;;11.06;71.55;100768.85;102589;279;96233;-55
2023/06/13 03:00:45;;;;;;;5.00;3.20;;;;;;;11.09;71.46;100765.87;102643;279;96643;-58
2023/06/13 03:03:18;;;;;;;5.00;3.10;;;;;;;11.07;71.55;100767.17;102563;279;120913;-57
2023/06/13 03:06:01;;;;;;;5.00;3.20;;;;;;;11.09;71.70;100766.82;102588;279;103106;-56
2023/06/13 03:08:41;;;;;;;5.10;3.70;;;;;;;11.07;71.73;100769.71;102537;267;114148;-54
2023/06/13 03:11:14;;;;;;;4.30;3.40;;;;;;;11.10;71.75;100768.16;102567;279;96258;-59
2023/06/13 03:13:54;;;;;;;5.10;3.90;;;;;;;11.11;71.91;100769.77;102541;279;96061;-59
2023/06/13 03:16:32;;;;;;;6.60;4.40;;;;;;;11.13;71.83;100770.13;102491;279;120873;-56
2023/06/13 03:19:09;;;;;;;6.60;4.00;;;;;;;11.18;71.89;100769.88;101995;279;566272;-55
2023/06/13 03:21:42;;;;;;;5.50;4.10;;;;;;;11.23;71.85;100770.02;102506;279;113913;-55
2023/06/13 03:24:23;;;;;;;6.90;4.10;;;;;;;11.30;71.92;100770.80;102479;279;96708;-55
2023/06/13 03:26:55;;;;;;;8.40;4.20;;;;;;;11.30;72.12;100764.30;102519;279;96458;-59
2023/06/13 03:29:29;;;;;;;7.90;4.10;;;;;;;11.30;72.35;100765.90;102535;279;121304;-58
2023/06/13 03:32:06;;;;;;;5.80;4.30;;;;;;;11.31;72.51;100767.31;102572;279;104456;-55
2023/06/13 03:34:39;;;;;;;4.80;3.80;;;;;;;11.36;72.47;100763.54;102406;279;114540;-55
2023/06/13 03:37:10;;;;;;;4.10;3.60;;;;;;;11.32;72.70;100766.92;102531;279;94906;-59
2023/06/13 03:39:43;;;;;;;5.50;3.70;;;;;;;11.26;72.82;100767.29;102556;279;98009;-59
2023/06/13 03:42:14;;;;;;;8.10;4.50;;;;;;;11.18;72.90;100764.96;102629;279;121082;-58
2023/06/13 03:44:48;;;;;;;6.60;4.50;;;;;;;11.22;72.94;100761.65;102605;279;104919;-59
2023/06/13 03:47:26;;;;;;;6.40;4.10;;;;;;;11.24;73.01;100763.73;102513;279;113416;-56
2023/06/13 03:50:02;;;;;;;6.30;4.60;;;;;;;11.27;73.18;100763.94;102494;279;96297;-55
2023/06/13 03:52:36;;;;;;;5.50;3.80;;;;;;;11.35;73.32;100763.67;102537;279;97588;-56
2023/06/13 03:55:13;;;;;;;6.80;4.80;;;;;;;11.41;73.26;100763.32;102586;279;120310;-55
2023/06/13 03:57:50;;;;;;;6.00;4.40;;;;;;;11.39;73.48;100764.20;102549;279;104725;-58
2023/06/13 04:00:22;;;;;;;6.50;4.80;;;;;;;11.41;73.32;100761.66;102502;279;114654;-57
2023/06/13 04:03:00;;;;;;;8.60;5.00;;;;;;;11.47;73.46;100756.08;102509;279;97085;-58
2023/06/13 04:05:35;;;;;;;5.90;4.50;;;;;;;11.52;73.70;100754.57;102564;268;96919;-58
2023/06/13 04:08:17;;;;;;;6.20;5.00;;;;;;;11.58;73.68;100753.58;102495;279;119824;-58
2023/06/13 04:10:59;;;;;;;8.90;4.90;;;;;;;11.59;73.79;100753.46;102558;279;103838;-57
2023/06/13 04:13:34;;;;;;;7.80;4.90;;;;;;;11.63;73.82;100755.92;102401;279;113632;-58
2023/06/13 04:16:06;;;;;;;6.20;4.50;;;;;;;11.62;73.93;100752.23;102527;279;97105;-55
2023/06/13 04:18:46;;;;;;;6.60;4.20;;;;;;;11.61;74.15;100752.36;102625;279;96915;-55
2023/06/13 04:21:18;;;;;;;5.40;4.50;;;;;;;11.58;74.07;100750.91;102600;279;120779;-57
2023/06/13 04:23:52;;;;;;;6.10;4.60;;;;;;;11.55;74.44;100747.50;102358;279;105264;-59
2023/06/13 04:26:25;;;;;;;5.50;4.60;;;;;;;11.59;74.12;100748.63;102587;279;112425;-54
2023/06/13 04:28:58;;;;;;;5.10;4.00;;;;;;;11.59;74.20;100748.14;102603;267;96070;-56
2023/06/13 04:31:34;;;;;;;5.40;3.80;;;;;;;11.62;74.22;100744.67;102360;281;97493;-55
2023/06/13 04:34:07;;;;;;;5.20;3.70;;;;;;;11.56;74.40;100746.89;102552;279;119481;-55
2023/06/13 04:36:41;;;;;;;5.70;5.00;;;;;;;11.53;74.47;100745.73;102569;279;105726;-57
2023/06/13 04:39:17;;;;;;;6.60;4.30;;;;;;;11.51;74.55;100745.77;102360;267;113640;-58
2023/06/13 04:41:55;;;;;;;6.80;4.60;;;;;;;11.51;74.54;100744.81;102528;279;96264;-55
2023/06/13 04:44:35;;;;;;;5.80;4.70;;;;;;;11.55;74.50;100744.04;102565;279;98570;-53
2023/06/13 04:47:09;;;;;;;7.90;5.20;;;;;;;11.56;74.72;100745.19;102552;279;121149;-57
2023/06/13 04:49:40;;;;;;;;;;;;;;;11.52;74.81;100746.95;102513;279;103740;-57
2023/06/13 04:52:14;;;;;;;6.20;5.30;;;;;;;11.52;75.00;100747.30;102544;279;112942;-58
2023/06/13 04:54:51;;;;;;;8.50;5.00;;;;;;;11.53;75.00;100748.89;102531;279;96857;-59
2023/06/13 04:57:28;;;;;;;5.50;4.40;;;;;;;11.57;74.83;100750.86;102535;279;95353;-59
2023/06/13 05:00:06;;;;;;;8.00;4.70;;;;;;;11.52;75.12;100754.23;102498;279;120580;-59
2023/06/13 05:02:48;;;;;;;5.40;4.60;;;;;;;11.55;74.99;100751.77;102537;279;105455;-58
2023/06/13 05:05:20;;;;;;;5.80;4.60;;;;;;;11.55;75.21;100751.45;102473;279;114066;-61
2023/06/13 05:07:55;;;;;;;6.80;5.40;;;;;;;11.60;75.44;100752.48;102522;279;95283;-59
2023/06/13 05:10:30;;;;;;;6.80;4.50;;;;;;;11.67;75.41;100751.92;102586;279;97223;-56
2023/06/13 05:13:10;;;;;;;7.60;4.50;;;;;;;11.64;75.73;100751.73;102568;279;120704;-56
2023/06/13 05:15:44;;;;;;;5.70;4.40;;;;;;;11.70;75.62;100748.73;102601;279;105026;-58
2023/06/13 05:18:29;;;;;;;8.10;5.10;;;;;;;11.78;75.63;100753.00;102524;279;112886;-57
2023/06/13 05:21:08;;;;;;;7.80;5.00;;;;;;;11.78;75.73;100750.95;102558;279;95546;-58
2023/06/13 05:23:43;;;;;;;5.30;4.40;;;;;;;11.76;75.93;100752.30;102520;279;98316;-58
2023/06/13 05:26:22;;;;;;;6.20;4.40;;;;;;;11.64;76.12;100752.16;102564;279;119474;-56
2023/06/13 05:28:54;;;;;;;7.20;4.50;;;;;;;11.67;75.92;100750.70;102581;279;104315;-55
2023/06/13 05:31:31;;;;;;;6.10;4.40;;;;;;;11.68;75.97;100752.51;102512;279;112615;-57
2023/06/13 05:34:03;;;;;;;5.10;4.60;;;;;;;11.74;75.80;100752.77;102511;279;96939;-58
2023/06/13 05:36:35;;;;;;;6.90;5.90;;;;;;;11.74;76.09;100749.45;102516;279;96348;-55
2023/06/13 05:39:10;;;;;;;9.50;6.10;;;;;;;11.72;76.07;100747.51;102453;279;120003;-55
2023/06/13 05:41:45;;;;;;;8.20;5.10;;;;;;;11.71;76.37;100749.52;102473;279;106601;-56
2023/06/13 05:44:22;;;;;;;7.10;5.20;;;;;;;11.61;76.41;100747.98;102510;279;114074;-55
2023/06/13 05:46:55;;;;;;;8.10;4.80;;;;;;;11.61;76.51;100751.66;102508;279;97268;-56
2023/06/13 05:49:27;;;;;;;6.40;4.70;;;;;;;11.67;76.34;100750.67;102537;279;97159;-59
2023/06/13 05:52:06;;;;;;;15.30;8.50;;;;;;;11.74;76.55;100748.04;102537;279;121585;-55
2023/06/13 05:54:38;;;;;;;15.40;7.60;;;;;;;11.71;76.74;100750.02;102500;279;103396;-56
2023/06/13 05:57:17;;;;;;;8.90;6.90;;;;;;;11.69;76.77;100752.03;102310;279;115415;-56
2023/06/13 05:59:54;;;;;;;8.50;5.50;;;;;;;11.76;76.68;100753.42;102540;279;96776;-56
2023/06/13 06:02:33;;;;;;;9.50;5.40;;;;;;;11.82;76.81;100754.43;102585;279;96917;-58
2023/06/13 06:05:11;;;;;;;8.60;5.20;;;;;;;11.87;76.91;100752.58;102506;279;120106;-56
2023/06/13 06:07:44;;;;;;;7.30;5.10;;;;;;;11.89;76.79;100751.47;102490;279;105786;-56
2023/06/13 06:10:21;;;;;;;8.20;6.00;;;;;;;11.80;76.94;100751.20;102485;279;113666;-56
2023/06/13 06:12:57;;;;;;;10.10;6.80;;;;;;;11.87;76.87;100744.63;102516;279;93860;-55
2023/06/13 06:15:34;;;;;;;10.40;7.10;;;;;;;11.82;77.15;100747.02;102538;279;97147;-59
2023/06/13 06:18:14;;;;;;;8.90;6.00;;;;;;;11.81;77.19;100745.19;102488;279;120386;-59
2023/06/13 06:20:48;;;;;;;8.90;6.40;;;;;;;11.86;77.12;100744.53;102548;279;104842;-55
2023/06/13 06:23:20;;;;;;;8.10;6.30;;;;;;;11.89;77.15;100746.27;102506;279;112996;-55
2023/06/13 06:26:05;;;;;;;10.90;6.00;;;;;;;11.97;77.33;100745.95;102516;279;95210;-56
2023/06/13 06:28:39;;;;;;;8.00;5.20;;;;;;;12.01;77.26;100747.23;102503;279;97641;-55
2023/06/13 06:31:12;;;;;;;9.00;5.40;;;;;;;12.05;77.30;100745.50;102584;279;120902;-66
2023/06/13 06:33:50;;;;;;;8.20;5.40;;;;;;;12.11;77.13;100741.75;102567;279;106148;-57
2023/06/13 06:36:23;;;;;;;9.50;6.40;;;;;;;12.15;77.22;100743.05;102496;279;114709;-57
2023/06/13 06:38:54;;;;;;;14.30;8.10;;;;;;;12.26;77.24;100745.79;102587;279;96783;-59
2023/06/13 06:41:26;;;;;;;10.30;7.00;;;;;;;12.32;77.20;100741.11;102591;279;96328;-55
2023/06/13 06:44:05;;;;;;;13.00;7.40;;;;;;;12.37;77.03;100741.12;102538;279;121100;-55
2023/06/13 06:46:46;;;;;;;9.80;6.70;;;;;;;12.41;77.01;100740.31;102558;279;103914;-56
2023/06/13 06:49:22;;;;;;;8.70;6.00;;;;;;;12.33;77.07;100736.04;102530;279;114975;-56
2023/06/13 06:52:05;;;;;;;10.60;6.60;;;;;;;12.32;77.02;100739.85;102543;279;93833;-59
2023/06/13 06:54:41;;;;;;;7.10;5.80;;;;;;;12.36;76.89;100739.04;102549;279;98837;-58
2023/06/13 06:57:13;;;;;;;12.90;6.00;;;;;;;12.30;76.81;100739.50;102514;279;119977;-57
2023/06/13 06:59:52;;;;;;;9.90;6.10;;;;;;;12.36;77.10;100739.73;102521;279;104696;-55
2023/06/13 07:02:30;;;;;;;9.60;6.50;;;;;;;12.36;76.97;100741.08;102480;279;114987;-56
2023/06/13 07:05:10;;;;;;;9.60;6.40;;;;;;;12.36;76.87;100742.20;102502;279;96212;-56
2023/06/13 07:07:47;;;;;;;11.40;6.50;;;;;;;12.35;76.77;100737.56;102546;279;97958;-59
2023/06/13 07:10:19;;;;;;;13.10;6.60;;;;;;;12.43;77.09;100738.27;102539;279;119925;-57
2023/06/13 07:12:53;;;;;;;8.40;6.20;;;;;;;12.48;76.74;100739.52;102528;279;105052;-56
2023/06/13 07:15:32;;;;;;;7.40;5.90;;;;;;;12.52;76.60;100737.18;102549;279;114315;-56
2023/06/13 07:18:05;;;;;;;7.80;5.90;;;;;;;12.51;76.89;100739.88;102570;279;96071;-58
2023/06/13 07:20:36;;;;;;;7.70;6.00;;;;;;;12.55;76.78;100738.98;102595;279;95306;-59
2023/06/13 07:23:12;;;;;;;6.20;5.50;;;;;;;12.61;76.51;100741.44;102623;279;119504;-59
2023/06/13 07:25:53;;;;;;;7.90;5.60;;;;;;;12.61;76.55;100744.78;102585;279;104503;-56
2023/06/13 07:28:24;;;;;;;6.80;6.10;;;;;;;12.67;76.55;100743.29;102558;279;113276;-57
2023/06/13 07:31:02;;;;;;;8.60;5.70;;;;;;;12.70;76.61;100746.54;102571;279;94947;-58
2023/06/13 07:33:40;;;;;;;6.90;6.20;;;;;;;12.70;76.43;100745.20;102518;279;96998;-57
2023/06/13 07:36:19;;;;;;;6.50;5.30;;;;;;;12.61;76.30;100738.20;102554;279;119930;-56
2023/06/13 07:38:55;;;;;;;6.40;5.40;;;;;;;12.55;76.18;100736.55;102579;279;103331;-56
2023/06/13 07:41:34;;;;;;;7.10;6.20;;;;;;;12.62;76.37;100732.09;102539;279;114573;-59
2023/06/13 07:44:14;;;;;;;8.20;6.00;;;;;;;12.67;76.48;100727.98;102517;279;94633;-60
2023/06/13 07:46:49;;;;;;;8.80;5.90;;;;;;;12.72;76.52;100724.81;102541;279;96844;-54
2023/06/13 07:49:28;;;;;;;7.10;5.90;;;;;;;12.71;76.41;100723.18;102507;279;119704;-54
2023/06/13 07:52:07;;;;;;;6.20;5.60;;;;;;;12.81;76.36;100721.57;102525;279;106044;-55
2023/06/13 07:54:46;;;;;;;7.70;5.10;;;;;;;12.91;76.36;100723.77;102517;279;113057;-56
2023/06/13 07:57:30;;;;;;;5.70;5.20;;;;;;;12.89;76.30;100729.14;102402;280;95006;-55
2023/06/13 08:00:14;;;;;;;6.50;5.30;;;;;;;12.89;76.21;100728.69;102563;279;97752;-57
2023/06/13 08:02:51;;;;;;;6.10;5.50;;;;;;;12.94;76.02;100730.02;102551;279;119713;-58
2023/06/13 08:05:33;;;;;;;6.60;5.40;;;;;;;12.97;76.12;100723.70;102527;279;105589;-55
2023/06/13 08:08:08;;;;;;;6.90;5.40;;;;;;;13.02;76.21;100724.48;102556;279;112911;-56
2023/06/13 08:10:45;;;;;;;9.20;5.60;;;;;;;13.10;76.29;100725.66;102541;279;98024;-55
2023/06/13 08:13:26;;;;;;;7.20;5.30;;;;;;;13.19;76.13;100720.05;102539;279;97470;-55
2023/06/13 08:16:01;;;;;;;6.20;5.20;;;;;;;13.27;76.10;100716.26;102518;279;121230;-56
2023/06/13 08:18:32;;;;;;;8.20;5.20;;;;;;;13.36;76.03;100713.61;102548;279;105733;-55
2023/06/13 08:21:13;;;;;;;7.80;5.30;;;;;;;13.44;76.11;100713.98;102565;279;113698;-59
2023/06/13 08:23:45;;;;;;;8.10;4.80;;;;;;;13.51;75.89;100715.33;102483;279;96482;-59
2023/06/13 08:26:19;;;;;;;7.10;5.00;;;;;;;13.57;75.96;100714.27;102538;279;97944;-57
2023/06/13 08:28:57;;;;;;;6.90;5.20;;;;;;;13.70;76.14;100714.54;102492;279;120515;-56
2023/06/13 08:31:29;;;;;;;5.90;4.10;;;;;;;13.82;75.98;100714.96;102554;279;103377;-58
2023/06/13 08:34:03;;;;;;;6.30;4.70;;;;;;;13.84;75.94;100713.52;102519;279;113598;-58
2023/06/13 08:36:36;;;;;;;5.40;4.70;;;;;;;14.00;75.73;100709.90;102585;279;95010;-59
2023/06/13 08:39:10;;;;;;;5.60;4.90;;;;;;;14.22;75.29;100709.70;102461;279;95786;-58
2023/06/13 08:41:45;;;;;;;7.20;4.90;;;;;;;14.25;74.94;100713.06;102541;268;120591;-56
2023/06/13 08:44:17;;;;;;;5.10;4.50;;;;;;;14.26;74.55;100718.12;102594;279;104573;-57
2023/06/13 08:46:50;;;;;;;6.40;4.50;;;;;;;14.21;74.41;100715.56;102565;279;113586;-55
2023/06/13 08:49:31;;;;;;;4.60;4.20;;;;;;;14.10;74.15;100709.30;102582;279;94753;-55
2023/06/13 08:52:11;;;;;;;5.00;4.60;;;;;;;14.08;74.16;100708.70;102571;279;96634;-57
2023/06/13 08:55:06;;;;;;;4.70;4.30;;;;;;;14.12;73.98;100708.98;102601;279;120432;-58
2023/06/13 08:57:47;;;;;;;5.80;5.10;;;;;;;14.17;74.00;100712.99;102469;279;106060;-54
2023/06/13 09:00:23;;;;;;;5.80;4.70;;;;;;;14.26;73.86;100711.86;102501;279;114287;-58
2023/06/13 09:03:03;;;;;;;6.60;5.10;;;;;;;14.48;73.75;100715.94;102500;279;95834;-57
2023/06/13 09:05:36;;;;;;;6.80;5.50;;;;;;;14.62;73.64;100715.45;102571;279;97173;-58
2023/06/13 09:08:10;;;;;;;6.30;5.10;;;;;;;14.79;73.43;100715.50;102534;279;119776;-59
2023/06/13 09:10:47;;;;;;;5.20;4.70;;;;;;;14.90;73.26;100713.29;102564;279;104345;-55
2023/06/13 09:13:25;;;;;;;5.50;5.00;;;;;;;14.95;73.13;100713.55;102552;279;114042;-56
2023/06/13 09:16:07;;;;;;;5.40;4.90;;;;;;;14.99;72.45;100719.98;102545;279;92980;-56
2023/06/13 09:18:51;;;;;;;;;;;;;;;14.72;72.18;100726.04;102569;279;97314;-57
2023/06/13 09:21:29;;;;;;;5.70;5.10;;;;;;;14.49;72.42;100723.96;102619;279;121048;-59
2023/06/13 09:24:08;;;;;;;7.30;5.10;;;;;;;14.30;72.62;100722.62;102645;279;104592;-58
2023/06/13 09:26:46;;;;;;;8.30;5.50;;;;;;;14.30;72.68;100723.64;102632;279;114250;-57
2023/06/13 09:29:33;;;;;;;6.40;5.80;;;;;;;14.35;72.79;100721.30;102532;279;96127;-57
2023/06/13 09:32:10;;;;;;;6.30;5.40;;;;;;;14.39;72.61;100724.22;102531;279;97440;-57
2023/06/13 09:34:46;;;;;;;6.70;5.60;;;;;;;14.37;72.67;100723.50;102524;279;120088;-56
2023/06/13 09:37:24;;;;;;;8.00;5.60;;;;;;;14.23;72.68;100723.48;102562;279;106045;-54
2023/06/13 09:40:09;;;;;;;7.00;6.10;;;;;;;14.22;72.81;100724.01;102509;279;114338;-55
2023/06/13 09:42:46;;;;;;;7.40;5.80;;;;;;;14.30;72.81;100726.02;102510;267;96793;-54
2023/06/13 09:45:21;;;;;;;6.10;5.20;;;;;;;14.30;72.83;100723.44;102510;279;98233;-57
2023/06/13 09:47:56;;;;;;;6.60;5.80;;;;;;;14.35;73.04;100723.86;102494;279;118932;-57
2023/06/13 09:50:31;;;;;;;7.70;5.90;;;;;;;14.29;73.14;100728.27;102568;279;104667;-54
2023/06/13 09:53:10;;;;;;;7.00;6.30;;;;;;;14.30;73.11;100730.50;102316;279;114368;-58
2023/06/13 09:55:53;;;;;;;8.10;6.60;;;;;;;14.33;73.30;100728.95;102553;279;93368;-56
2023/06/13 09:58:29;;;;;;;8.50;7.20;;;;;;;14.33;73.22;100730.83;102563;279;96019;-56
2023/06/13 10:01:12;;;;;;;9.20;7.30;;;;;;;14.37;73.18;100728.69;102510;279;120265;-56
2023/06/13 10:03:46;;;;;;;8.20;6.50;;;;;;;14.44;73.21;100727.85;102551;279;106630;-56
2023/06/13 10:06:23;;;;;;;8.90;6.60;;;;;;;14.51;73.28;100728.40;102576;279;114326;-56
2023/06/13 10:09:01;;;;;;;7.90;6.30;;;;;;;14.48;73.32;100731.04;102536;279;95426;-56
2023/06/13 10:11:38;;;;;;;9.80;6.80;;;;;;;14.48;73.13;100725.05;102523;279;97267;-56
2023/06/13 10:14:23;;;;;;;8.50;6.30;;;;;;;14.50;73.17;100726.14;102352;280;120693;-57
2023/06/13 10:17:06;;;;;;;6.80;5.90;;;;;;;14.58;73.06;100723.06;102581;279;104073;-55
2023/06/13 10:19:42;;;;;;;7.30;6.10;;;;;;;14.62;73.15;100718.73;102559;279;115085;-55
2023/06/13 10:22:18;;;;;;;7.40;6.60;;;;;;;14.71;72.95;100721.16;102501;279;96392;-56
2023/06/13 10:24:54;;;;;;;7.60;6.90;;;;;;;14.81;73.10;100710.53;102496;279;97004;-56
2023/06/13 10:27:28;;;;;;;7.50;6.80;;;;;;;15.04;73.13;100710.73;102516;279;120407;-57
2023/06/13 10:30:37;;;;;;;6.80;6.00;;;;;;;15.34;73.16;100710.27;102349;279;106120;-57
2023/06/13 10:33:45;;;;;;;7.70;6.90;;;;;;;15.64;72.61;100706.30;102513;279;114617;-56
2023/06/13 10:36:28;;;;;;;8.40;6.60;;;;;;;15.76;72.05;100706.88;102500;279;93828;-57
2023/06/13 10:39:39;;;;;;;7.60;6.90;;;;;;;15.87;71.99;100700.94;102548;267;96154;-57
2023/06/13 10:42:31;;;;;;;8.10;7.00;;;;;;;16.09;71.67;100692.71;102323;269;118980;-57
2023/06/13 10:45:12;;;;;;;7.00;6.30;;;;;;;16.44;71.06;100692.37;102598;279;104010;-57
2023/06/13 10:47:50;;;;;;;8.40;6.40;;;;;;;16.50;70.64;100690.14;102609;279;114754;-58
2023/06/13 10:50:25;;;;;;;9.90;7.70;;;;;;;16.48;70.27;100691.38;102575;279;94294;-57
2023/06/13 10:53:01;;;;;;;7.60;6.90;;;;;;;16.44;69.85;100693.45;102607;279;98229;-56
2023/06/13 10:55:40;;;;;;;7.30;6.60;;;;;;;16.59;69.92;100689.02;102616;268;120501;-56
2023/06/13 10:58:26;;;;;;;7.80;6.70;;;;;;;16.80;69.61;100689.69;102536;279;104995;-58
2023/06/13 11:01:25;;;;;;;7.40;6.70;;;;;;;16.91;69.13;100688.38;102529;279;115686;-56
2023/06/13 11:04:08;;;;;;;6.70;6.10;;;;;;;16.90;68.69;100690.85;102507;279;96287;-56
2023/06/13 11:06:44;;;;;;;9.20;5.80;;;;;;;16.70;68.44;100690.31;102254;279;99810;-54
2023/06/13 11:09:21;;;;;;;6.10;5.60;;;;;;;16.43;68.31;100693.55;102517;279;119190;-55
2023/06/13 11:11:58;;;;;;;6.20;5.60;;;;;;;16.41;68.36;100692.27;102536;279;105300;-54
2023/06/13 11:14:37;;;;;;;6.60;6.00;;;;;;;16.35;68.46;100688.52;102544;279;113009;-55
2023/06/13 11:17:13;;;;;;;6.30;5.50;;;;;;;16.30;68.53;100687.17;101872;279;680362;-59
2023/06/13 11:19:59;;;;;;;10.40;6.40;;;;;;;16.42;68.78;100685.63;102454;279;97920;-59
2023/06/13 11:22:39;;;;;;;10.20;6.90;;;;;;;16.45;68.49;100683.80;102525;279;119631;-54
2023/06/13 11:25:12;;;;;;;7.70;6.90;;;;;;;16.60;68.56;100682.59;102586;279;104498;-58
2023/06/13 11:27:44;;;;;;;7.50;6.60;;;;;;;16.87;68.55;100681.81;102602;279;113802;-55
2023/06/13 11:30:20;;;;;;;6.40;5.80;;;;;;;17.28;68.27;100687.30;102580;279;94028;-56
2023/06/13 11:32:52;;;;;;;7.50;5.90;;;;;;;17.61;67.41;100676.23;102561;279;96328;-55
2023/06/13 11:35:26;;;;;;;8.30;6.40;;;;;;;17.81;66.86;100682.11;102599;279;118095;-59
2023/06/13 11:38:06;;;;;;;7.50;6.30;;;;;;;18.09;66.65;100680.71;102575;279;105901;-55
2023/06/13 11:40:44;;;;;;;8.70;6.80;;;;;;;18.29;66.20;100680.89;102560;267;113144;-55
2023/06/13 11:43:17;;;;;;;7.40;6.60;;;;;;;18.40;65.72;100680.30;102514;279;94901;-55
2023/06/13 11:46:00;;;;;;;7.50;6.50;;;;;;;18.16;65.35;100681.79;102559;279;95940;-55
2023/06/13 11:48:36;;;;;;;7.80;6.40;;;;;;;17.77;64.95;100687.31;102532;279;120449;-54
2023/06/13 11:51:16;;;;;;;7.40;6.00;;;;;;;17.48;65.04;100685.21;102525;279;105719;-54
2023/06/13 11:53:53;;;;;;;7.40;6.60;;;;;;;17.20;65.38;100686.73;102494;279;113902;-56
2023/06/13 11:56:25;;;;;;;9.40;7.70;;;;;;;17.05;65.63;100687.58;102523;279;93867;-55
2023/06/13 11:59:16;;;;;;;9.30;6.00;;;;;;;17.15;65.69;100692.30;102498;279;95825;-56
2023/06/13 12:01:52;;;;;;;6.70;6.10;;;;;;;17.29;65.60;100684.35;102559;279;120232;-58
2023/06/13 12:04:33;;;;;;;7.50;6.00;;;;;;;17.44;65.37;100679.90;102507;279;104789;-57
2023/06/13 12:07:08;;;;;;;6.40;5.80;;;;;;;17.58;65.28;100676.78;102540;279;114341;-56